Airfield :
LOGIN :

Register | Disclaimer

   EN    FR    IT 

 










Legend :    VFR   Marginal VFR   IFR   Intensive IFR   Very Intensive IFR
Visi :
Ceiling :
>= 8 km
>= 3000ft
5 to 8 km
1000 to 3000 ft
1500m to 5 km
500 to 1000 ft
800 to 1500m
200 to 500 ft
< 800m
< 200 ft
Symbols :   Thunderstorms  Fog  Heavy snow  Heavy precipitations  Wind > 20 kt
SIGMETs :     Misc.  Thunderstorms  Icing  Turbulence  Mountain Waves  Volcanic Ashes






- Airport Elevation : 13 ft
- IATA code : SNR


LFRZ - St-Nazaire

CURRENT METAR :
  • 182300Z AUTO 26013KT 9999 SCT019 SCT025 BKN031 10/08 Q1028 TEMPO 27017G30KT 3000 SHRA BKN018TCU

EXPIRED METARs :
  • 182230Z AUTO 25015KT 9999 FEW023 BKN160 BKN200 10/08 Q1027 TEMPO 27017G30KT 3000 SHRA BKN018TCU
  • 182200Z AUTO 25015KT 9999 FEW019 BKN029 OVC200 10/08 Q1028 TEMPO 27017G30KT 3000 SHRA BKN018TCU
  • 182130Z AUTO 25014KT 9999 BKN020 OVC200 10/08 Q1028 TEMPO 27017G30KT 3000 SHRA BKN018TCU
  • 182100Z AUTO 25016KT 9999 SCT019/// SCT032/// BKN047/// ///TCU 10/08 Q1028 BECMG SCT030
  • 182030Z AUTO 25014KT 9999 FEW021/// SCT028/// BKN049/// ///CB 10/08 Q1028 BECMG SCT030
  • 182000Z AUTO 25012KT 9999 FEW023 SCT044 BKN074 10/08 Q1028 NOSIG

TAF TAF LFRZ
Valid from the 18 at 18:00 until the 19 at 18:00 UTC


181700Z 1818/1918 25012KT 9999 SCT030
PROB30
TEMPO 1818/1820 25015G25KT SHRA SCT025TCU
TEMPO 1823/1901 27017G30KT 3000 SHRA BKN018TCU
PROB40
TEMPO 1910/1915 -SHRA BKN014



MET'MAP, your aeronautical weather chart ! - Copyright ORBIFLY December 2007 - Disclaimer

ORBIFLY MET'MAP TEAM :

Programming & Development : Alexandra Zaïnal
Concept & original design : Baudouin d'Aumeries
Assistance for programming : Marc-Olivier Méhu
Technical & hardware support : Manuel Goepfert

Contact : metmap@orbifly.com




SOURCES & CREDITS :

   NOAA